sensor_id;sensor_type;location;lat;lon;timestamp;P1;durP1;ratioP1;P2;durP2;ratioP2
34196;SDS011;36594;45.192;5.722;2023-04-03T00:02:45;2.83;;;1.00;;
34196;SDS011;36594;45.192;5.722;2023-04-03T00:05:33;0.80;;;0.80;;
34196;SDS011;36594;45.192;5.722;2023-04-03T00:08:21;1.22;;;1.12;;
34196;SDS011;36594;45.192;5.722;2023-04-03T00:11:10;0.75;;;0.75;;
34196;SDS011;36594;45.192;5.722;2023-04-03T00:13:58;1.00;;;0.90;;
34196;SDS011;36594;45.192;5.722;2023-04-03T00:16:46;2.00;;;0.90;;
34196;SDS011;36594;45.192;5.722;2023-04-03T00:19:35;1.20;;;1.20;;
34196;SDS011;36594;45.192;5.722;2023-04-03T00:22:23;1.50;;;0.80;;
34196;SDS011;36594;45.192;5.722;2023-04-03T00:25:13;2.22;;;1.07;;
34196;SDS011;36594;45.192;5.722;2023-04-03T00:28:01;1.82;;;0.93;;
34196;SDS011;36594;45.192;5.722;2023-04-03T00:30:51;1.05;;;0.95;;
34196;SDS011;36594;45.192;5.722;2023-04-03T00:33:40;1.40;;;0.90;;
34196;SDS011;36594;45.192;5.722;2023-04-03T00:36:29;0.88;;;0.88;;
34196;SDS011;36594;45.192;5.722;2023-04-03T00:39:17;1.25;;;1.00;;
34196;SDS011;36594;45.192;5.722;2023-04-03T00:42:06;1.20;;;1.10;;
34196;SDS011;36594;45.192;5.722;2023-04-03T00:47:47;1.45;;;0.90;;
34196;SDS011;36594;45.192;5.722;2023-04-03T00:50:37;1.90;;;1.17;;
34196;SDS011;36594;45.192;5.722;2023-04-03T00:53:29;1.05;;;1.00;;
34196;SDS011;36594;45.192;5.722;2023-04-03T00:56:25;1.27;;;0.90;;
34196;SDS011;36594;45.192;5.722;2023-04-03T00:59:20;0.80;;;0.80;;
34196;SDS011;36594;45.192;5.722;2023-04-03T01:02:12;1.57;;;0.80;;
34196;SDS011;36594;45.192;5.722;2023-04-03T01:05:01;3.70;;;1.10;;
34196;SDS011;36594;45.192;5.722;2023-04-03T01:07:50;2.27;;;1.02;;
34196;SDS011;36594;45.192;5.722;2023-04-03T01:10:39;1.40;;;0.80;;
34196;SDS011;36594;45.192;5.722;2023-04-03T01:13:29;1.70;;;1.00;;
34196;SDS011;36594;45.192;5.722;2023-04-03T01:16:20;0.70;;;0.60;;
34196;SDS011;36594;45.192;5.722;2023-04-03T01:19:10;1.77;;;1.00;;
34196;SDS011;36594;45.192;5.722;2023-04-03T01:22:05;0.70;;;0.60;;
34196;SDS011;36594;45.192;5.722;2023-04-03T01:24:54;0.70;;;0.70;;
34196;SDS011;36594;45.192;5.722;2023-04-03T01:27:43;2.95;;;0.60;;
34196;SDS011;36594;45.192;5.722;2023-04-03T01:30:33;1.80;;;0.90;;
34196;SDS011;36594;45.192;5.722;2023-04-03T01:33:23;1.27;;;0.90;;
34196;SDS011;36594;45.192;5.722;2023-04-03T01:36:20;0.80;;;0.80;;
34196;SDS011;36594;45.192;5.722;2023-04-03T01:39:16;1.20;;;0.90;;
34196;SDS011;36594;45.192;5.722;2023-04-03T01:42:06;0.90;;;0.60;;
34196;SDS011;36594;45.192;5.722;2023-04-03T01:44:56;1.00;;;0.70;;
34196;SDS011;36594;45.192;5.722;2023-04-03T01:47:44;0.98;;;0.90;;
34196;SDS011;36594;45.192;5.722;2023-04-03T01:50:33;0.60;;;0.60;;
34196;SDS011;36594;45.192;5.722;2023-04-03T01:53:22;0.88;;;0.88;;
34196;SDS011;36594;45.192;5.722;2023-04-03T01:56:10;0.62;;;0.60;;
34196;SDS011;36594;45.192;5.722;2023-04-03T01:58:59;0.70;;;0.70;;
34196;SDS011;36594;45.192;5.722;2023-04-03T02:01:49;1.75;;;0.62;;
34196;SDS011;36594;45.192;5.722;2023-04-03T02:04:37;0.80;;;0.60;;
34196;SDS011;36594;45.192;5.722;2023-04-03T02:07:25;0.78;;;0.72;;
34196;SDS011;36594;45.192;5.722;2023-04-03T02:10:14;1.90;;;0.70;;
34196;SDS011;36594;45.192;5.722;2023-04-03T02:13:02;0.80;;;0.80;;
34196;SDS011;36594;45.192;5.722;2023-04-03T02:15:51;0.90;;;0.80;;
34196;SDS011;36594;45.192;5.722;2023-04-03T02:18:39;0.90;;;0.90;;
34196;SDS011;36594;45.192;5.722;2023-04-03T02:21:28;1.00;;;0.70;;
34196;SDS011;36594;45.192;5.722;2023-04-03T02:24:17;0.55;;;0.55;;
34196;SDS011;36594;45.192;5.722;2023-04-03T02:27:05;0.60;;;0.60;;
34196;SDS011;36594;45.192;5.722;2023-04-03T02:29:54;0.50;;;0.50;;
34196;SDS011;36594;45.192;5.722;2023-04-03T02:32:42;3.42;;;0.65;;
34196;SDS011;36594;45.192;5.722;2023-04-03T02:35:31;1.30;;;0.65;;
34196;SDS011;36594;45.192;5.722;2023-04-03T02:38:20;0.53;;;0.53;;
34196;SDS011;36594;45.192;5.722;2023-04-03T02:41:10;0.50;;;0.50;;
34196;SDS011;36594;45.192;5.722;2023-04-03T02:44:01;0.93;;;0.60;;
34196;SDS011;36594;45.192;5.722;2023-04-03T02:46:50;0.75;;;0.68;;
34196;SDS011;36594;45.192;5.722;2023-04-03T02:49:39;0.50;;;0.40;;
34196;SDS011;36594;45.192;5.722;2023-04-03T02:52:27;0.50;;;0.50;;
34196;SDS011;36594;45.192;5.722;2023-04-03T02:55:17;1.20;;;0.70;;
34196;SDS011;36594;45.192;5.722;2023-04-03T02:58:07;1.00;;;0.60;;
34196;SDS011;36594;45.192;5.722;2023-04-03T03:00:56;0.53;;;0.53;;
34196;SDS011;36594;45.192;5.722;2023-04-03T03:03:44;1.37;;;0.75;;
34196;SDS011;36594;45.192;5.722;2023-04-03T03:06:33;1.07;;;0.50;;
34196;SDS011;36594;45.192;5.722;2023-04-03T03:09:21;1.32;;;0.55;;
34196;SDS011;36594;45.192;5.722;2023-04-03T03:12:10;0.42;;;0.42;;
34196;SDS011;36594;45.192;5.722;2023-04-03T03:14:58;0.47;;;0.47;;
34196;SDS011;36594;45.192;5.722;2023-04-03T03:17:47;0.57;;;0.57;;
34196;SDS011;36594;45.192;5.722;2023-04-03T03:20:35;1.52;;;0.60;;
34196;SDS011;36594;45.192;5.722;2023-04-03T03:23:25;0.30;;;0.30;;
34196;SDS011;36594;45.192;5.722;2023-04-03T03:26:14;0.57;;;0.47;;
34196;SDS011;36594;45.192;5.722;2023-04-03T03:29:03;0.40;;;0.40;;
34196;SDS011;36594;45.192;5.722;2023-04-03T03:31:51;0.60;;;0.60;;
34196;SDS011;36594;45.192;5.722;2023-04-03T03:34:40;0.40;;;0.40;;
34196;SDS011;36594;45.192;5.722;2023-04-03T03:37:28;0.47;;;0.47;;
34196;SDS011;36594;45.192;5.722;2023-04-03T03:40:16;1.40;;;0.60;;
34196;SDS011;36594;45.192;5.722;2023-04-03T03:43:05;2.50;;;0.80;;
34196;SDS011;36594;45.192;5.722;2023-04-03T03:45:54;0.45;;;0.45;;
34196;SDS011;36594;45.192;5.722;2023-04-03T03:48:44;0.35;;;0.35;;
34196;SDS011;36594;45.192;5.722;2023-04-03T03:51:32;1.12;;;0.47;;
34196;SDS011;36594;45.192;5.722;2023-04-03T03:54:21;0.68;;;0.42;;
34196;SDS011;36594;45.192;5.722;2023-04-03T03:57:10;0.30;;;0.30;;
34196;SDS011;36594;45.192;5.722;2023-04-03T03:59:59;0.20;;;0.20;;
34196;SDS011;36594;45.192;5.722;2023-04-03T04:02:49;0.40;;;0.40;;
34196;SDS011;36594;45.192;5.722;2023-04-03T04:05:39;0.50;;;0.50;;
34196;SDS011;36594;45.192;5.722;2023-04-03T04:08:27;0.45;;;0.45;;
34196;SDS011;36594;45.192;5.722;2023-04-03T04:11:17;0.57;;;0.50;;
34196;SDS011;36594;45.192;5.722;2023-04-03T04:14:07;0.40;;;0.40;;
34196;SDS011;36594;45.192;5.722;2023-04-03T04:16:57;0.40;;;0.40;;
34196;SDS011;36594;45.192;5.722;2023-04-03T04:19:47;0.42;;;0.42;;
34196;SDS011;36594;45.192;5.722;2023-04-03T04:22:35;0.47;;;0.47;;
34196;SDS011;36594;45.192;5.722;2023-04-03T04:25:25;1.07;;;0.42;;
34196;SDS011;36594;45.192;5.722;2023-04-03T04:28:14;0.40;;;0.37;;
34196;SDS011;36594;45.192;5.722;2023-04-03T04:31:04;1.23;;;0.47;;
34196;SDS011;36594;45.192;5.722;2023-04-03T04:33:53;1.02;;;0.40;;
34196;SDS011;36594;45.192;5.722;2023-04-03T04:36:41;0.30;;;0.30;;
34196;SDS011;36594;45.192;5.722;2023-04-03T04:39:31;1.60;;;0.50;;
34196;SDS011;36594;45.192;5.722;2023-04-03T04:42:20;0.90;;;0.33;;
34196;SDS011;36594;45.192;5.722;2023-04-03T04:45:09;0.45;;;0.40;;
34196;SDS011;36594;45.192;5.722;2023-04-03T04:47:59;1.42;;;0.47;;
34196;SDS011;36594;45.192;5.722;2023-04-03T04:50:48;0.68;;;0.68;;
34196;SDS011;36594;45.192;5.722;2023-04-03T04:53:37;0.23;;;0.23;;
34196;SDS011;36594;45.192;5.722;2023-04-03T04:56:26;0.47;;;0.47;;
34196;SDS011;36594;45.192;5.722;2023-04-03T04:59:15;1.30;;;0.42;;
34196;SDS011;36594;45.192;5.722;2023-04-03T05:02:04;1.60;;;0.40;;
34196;SDS011;36594;45.192;5.722;2023-04-03T05:04:52;0.90;;;0.40;;
34196;SDS011;36594;45.192;5.722;2023-04-03T05:07:42;1.60;;;0.50;;
34196;SDS011;36594;45.192;5.722;2023-04-03T05:10:31;0.25;;;0.25;;
34196;SDS011;36594;45.192;5.722;2023-04-03T05:13:20;0.40;;;0.37;;
34196;SDS011;36594;45.192;5.722;2023-04-03T05:16:09;0.30;;;0.30;;
34196;SDS011;36594;45.192;5.722;2023-04-03T05:18:58;0.93;;;0.45;;
34196;SDS011;36594;45.192;5.722;2023-04-03T05:21:47;0.50;;;0.50;;
34196;SDS011;36594;45.192;5.722;2023-04-03T05:24:36;0.50;;;0.42;;
34196;SDS011;36594;45.192;5.722;2023-04-03T05:27:26;1.07;;;0.40;;
34196;SDS011;36594;45.192;5.722;2023-04-03T05:30:16;0.47;;;0.47;;
34196;SDS011;36594;45.192;5.722;2023-04-03T05:33:06;0.70;;;0.55;;
34196;SDS011;36594;45.192;5.722;2023-04-03T05:36:02;0.50;;;0.50;;
34196;SDS011;36594;45.192;5.722;2023-04-03T05:38:51;0.55;;;0.55;;
34196;SDS011;36594;45.192;5.722;2023-04-03T05:41:42;0.50;;;0.50;;
34196;SDS011;36594;45.192;5.722;2023-04-03T05:44:31;0.50;;;0.50;;
34196;SDS011;36594;45.192;5.722;2023-04-03T05:47:21;1.20;;;0.33;;
34196;SDS011;36594;45.192;5.722;2023-04-03T05:50:10;0.30;;;0.30;;
34196;SDS011;36594;45.192;5.722;2023-04-03T05:52:59;0.35;;;0.35;;
34196;SDS011;36594;45.192;5.722;2023-04-03T05:55:50;0.50;;;0.37;;
34196;SDS011;36594;45.192;5.722;2023-04-03T05:58:41;1.37;;;0.47;;
34196;SDS011;36594;45.192;5.722;2023-04-03T06:01:29;0.70;;;0.47;;
34196;SDS011;36594;45.192;5.722;2023-04-03T06:04:18;0.40;;;0.40;;
34196;SDS011;36594;45.192;5.722;2023-04-03T06:07:10;0.35;;;0.35;;
34196;SDS011;36594;45.192;5.722;2023-04-03T06:09:59;0.60;;;0.60;;
34196;SDS011;36594;45.192;5.722;2023-04-03T06:12:49;1.10;;;0.70;;
34196;SDS011;36594;45.192;5.722;2023-04-03T06:15:38;1.20;;;0.50;;
34196;SDS011;36594;45.192;5.722;2023-04-03T06:18:28;0.53;;;0.53;;
34196;SDS011;36594;45.192;5.722;2023-04-03T06:21:17;2.15;;;1.50;;
34196;SDS011;36594;45.192;5.722;2023-04-03T06:24:06;1.10;;;1.10;;
34196;SDS011;36594;45.192;5.722;2023-04-03T06:26:56;1.40;;;1.30;;
34196;SDS011;36594;45.192;5.722;2023-04-03T06:29:45;1.55;;;1.45;;
34196;SDS011;36594;45.192;5.722;2023-04-03T06:32:34;1.17;;;1.17;;
34196;SDS011;36594;45.192;5.722;2023-04-03T06:35:22;1.20;;;1.10;;
34196;SDS011;36594;45.192;5.722;2023-04-03T06:38:12;1.00;;;1.00;;
34196;SDS011;36594;45.192;5.722;2023-04-03T06:41:00;4.47;;;1.40;;
34196;SDS011;36594;45.192;5.722;2023-04-03T06:43:48;1.10;;;1.10;;
34196;SDS011;36594;45.192;5.722;2023-04-03T06:46:37;1.77;;;1.40;;
34196;SDS011;36594;45.192;5.722;2023-04-03T06:49:26;2.20;;;1.60;;
34196;SDS011;36594;45.192;5.722;2023-04-03T06:52:15;1.85;;;1.57;;
34196;SDS011;36594;45.192;5.722;2023-04-03T06:55:04;1.20;;;1.15;;
34196;SDS011;36594;45.192;5.722;2023-04-03T06:57:53;1.60;;;1.50;;
34196;SDS011;36594;45.192;5.722;2023-04-03T07:00:42;1.40;;;1.30;;
34196;SDS011;36594;45.192;5.722;2023-04-03T07:03:30;2.15;;;1.42;;
34196;SDS011;36594;45.192;5.722;2023-04-03T07:06:19;1.33;;;1.13;;
34196;SDS011;36594;45.192;5.722;2023-04-03T07:09:08;1.25;;;1.20;;
34196;SDS011;36594;45.192;5.722;2023-04-03T07:11:58;1.45;;;1.10;;
34196;SDS011;36594;45.192;5.722;2023-04-03T07:14:46;1.20;;;1.10;;
34196;SDS011;36594;45.192;5.722;2023-04-03T07:17:35;1.40;;;1.30;;
34196;SDS011;36594;45.192;5.722;2023-04-03T07:20:23;1.30;;;1.17;;
34196;SDS011;36594;45.192;5.722;2023-04-03T07:23:12;1.35;;;1.25;;
34196;SDS011;36594;45.192;5.722;2023-04-03T07:26:01;1.40;;;1.30;;
34196;SDS011;36594;45.192;5.722;2023-04-03T07:28:50;1.35;;;1.25;;
34196;SDS011;36594;45.192;5.722;2023-04-03T07:31:39;1.82;;;1.35;;
34196;SDS011;36594;45.192;5.722;2023-04-03T07:34:27;1.60;;;1.30;;
34196;SDS011;36594;45.192;5.722;2023-04-03T07:37:16;1.80;;;1.30;;
34196;SDS011;36594;45.192;5.722;2023-04-03T07:40:05;1.02;;;1.02;;
34196;SDS011;36594;45.192;5.722;2023-04-03T07:42:54;2.13;;;1.10;;
34196;SDS011;36594;45.192;5.722;2023-04-03T07:45:43;1.07;;;0.98;;
34196;SDS011;36594;45.192;5.722;2023-04-03T07:48:33;1.42;;;0.98;;
34196;SDS011;36594;45.192;5.722;2023-04-03T07:51:22;0.93;;;0.93;;
34196;SDS011;36594;45.192;5.722;2023-04-03T07:54:11;1.15;;;1.05;;
34196;SDS011;36594;45.192;5.722;2023-04-03T07:56:59;1.02;;;1.02;;
34196;SDS011;36594;45.192;5.722;2023-04-03T07:59:47;1.15;;;1.15;;
34196;SDS011;36594;45.192;5.722;2023-04-03T08:02:36;1.30;;;1.07;;
34196;SDS011;36594;45.192;5.722;2023-04-03T08:05:24;1.30;;;0.98;;
34196;SDS011;36594;45.192;5.722;2023-04-03T08:08:13;1.30;;;0.70;;
34196;SDS011;36594;45.192;5.722;2023-04-03T08:11:03;1.10;;;1.00;;
34196;SDS011;36594;45.192;5.722;2023-04-03T08:13:53;1.62;;;1.15;;
34196;SDS011;36594;45.192;5.722;2023-04-03T08:16:43;0.80;;;0.80;;
34196;SDS011;36594;45.192;5.722;2023-04-03T08:22:20;0.98;;;0.98;;
34196;SDS011;36594;45.192;5.722;2023-04-03T08:25:09;1.02;;;0.98;;
34196;SDS011;36594;45.192;5.722;2023-04-03T08:27:57;1.22;;;1.12;;
34196;SDS011;36594;45.192;5.722;2023-04-03T08:30:46;0.90;;;0.90;;
34196;SDS011;36594;45.192;5.722;2023-04-03T08:33:34;0.90;;;0.90;;
34196;SDS011;36594;45.192;5.722;2023-04-03T08:36:24;0.70;;;0.70;;
34196;SDS011;36594;45.192;5.722;2023-04-03T08:39:14;0.95;;;0.95;;
34196;SDS011;36594;45.192;5.722;2023-04-03T08:42:05;0.98;;;0.95;;
34196;SDS011;36594;45.192;5.722;2023-04-03T08:44:58;1.20;;;1.00;;
34196;SDS011;36594;45.192;5.722;2023-04-03T08:50:46;1.00;;;0.90;;
34196;SDS011;36594;45.192;5.722;2023-04-03T08:53:40;0.93;;;0.90;;
34196;SDS011;36594;45.192;5.722;2023-04-03T08:56:31;1.30;;;0.98;;
34196;SDS011;36594;45.192;5.722;2023-04-03T08:59:24;1.40;;;0.90;;
34196;SDS011;36594;45.192;5.722;2023-04-03T09:02:18;0.90;;;0.90;;
34196;SDS011;36594;45.192;5.722;2023-04-03T09:05:11;1.55;;;0.80;;
34196;SDS011;36594;45.192;5.722;2023-04-03T09:08:09;0.90;;;0.90;;
34196;SDS011;36594;45.192;5.722;2023-04-03T09:11:08;0.73;;;0.73;;
34196;SDS011;36594;45.192;5.722;2023-04-03T09:14:26;0.65;;;0.62;;
34196;SDS011;36594;45.192;5.722;2023-04-03T09:17:14;0.90;;;0.75;;
34196;SDS011;36594;45.192;5.722;2023-04-03T09:23:30;0.80;;;0.70;;
34196;SDS011;36594;45.192;5.722;2023-04-03T09:26:24;0.78;;;0.78;;
34196;SDS011;36594;45.192;5.722;2023-04-03T09:29:23;0.82;;;0.82;;
34196;SDS011;36594;45.192;5.722;2023-04-03T09:32:21;0.50;;;0.50;;
34196;SDS011;36594;45.192;5.722;2023-04-03T09:35:21;0.85;;;0.85;;
34196;SDS011;36594;45.192;5.722;2023-04-03T09:41:07;0.90;;;0.90;;
34196;SDS011;36594;45.192;5.722;2023-04-03T09:43:56;0.90;;;0.90;;
34196;SDS011;36594;45.192;5.722;2023-04-03T09:46:44;0.80;;;0.80;;
34196;SDS011;36594;45.192;5.722;2023-04-03T09:49:32;0.77;;;0.77;;
34196;SDS011;36594;45.192;5.722;2023-04-03T09:52:25;0.70;;;0.70;;
34196;SDS011;36594;45.192;5.722;2023-04-03T09:55:20;0.60;;;0.50;;
34196;SDS011;36594;45.192;5.722;2023-04-03T09:58:22;1.00;;;0.90;;
34196;SDS011;36594;45.192;5.722;2023-04-03T10:01:22;1.00;;;0.60;;
34196;SDS011;36594;45.192;5.722;2023-04-03T10:04:13;2.40;;;0.98;;
34196;SDS011;36594;45.192;5.722;2023-04-03T10:07:31;0.60;;;0.60;;
34196;SDS011;36594;45.192;5.722;2023-04-03T10:10:18;0.70;;;0.70;;
34196;SDS011;36594;45.192;5.722;2023-04-03T10:13:11;1.32;;;0.72;;
34196;SDS011;36594;45.192;5.722;2023-04-03T10:16:06;0.65;;;0.65;;
34196;SDS011;36594;45.192;5.722;2023-04-03T10:22:03;0.60;;;0.60;;
34196;SDS011;36594;45.192;5.722;2023-04-03T10:24:58;0.60;;;0.60;;
34196;SDS011;36594;45.192;5.722;2023-04-03T10:27:53;0.90;;;0.70;;
34196;SDS011;36594;45.192;5.722;2023-04-03T10:31:05;0.62;;;0.62;;
34196;SDS011;36594;45.192;5.722;2023-04-03T10:34:12;0.47;;;0.47;;
34196;SDS011;36594;45.192;5.722;2023-04-03T10:37:04;0.80;;;0.80;;
34196;SDS011;36594;45.192;5.722;2023-04-03T10:43:02;0.70;;;0.70;;
34196;SDS011;36594;45.192;5.722;2023-04-03T10:45:57;0.70;;;0.60;;
34196;SDS011;36594;45.192;5.722;2023-04-03T10:48:53;0.60;;;0.60;;
34196;SDS011;36594;45.192;5.722;2023-04-03T10:54:45;0.78;;;0.78;;
34196;SDS011;36594;45.192;5.722;2023-04-03T10:57:30;0.60;;;0.60;;
34196;SDS011;36594;45.192;5.722;2023-04-03T11:00:23;0.50;;;0.50;;
34196;SDS011;36594;45.192;5.722;2023-04-03T11:06:18;0.53;;;0.53;;
34196;SDS011;36594;45.192;5.722;2023-04-03T11:09:30;0.50;;;0.50;;
34196;SDS011;36594;45.192;5.722;2023-04-03T11:12:33;0.65;;;0.65;;
34196;SDS011;36594;45.192;5.722;2023-04-03T11:15:20;0.40;;;0.40;;
34196;SDS011;36594;45.192;5.722;2023-04-03T11:18:15;0.53;;;0.53;;
34196;SDS011;36594;45.192;5.722;2023-04-03T11:21:17;0.42;;;0.42;;
34196;SDS011;36594;45.192;5.722;2023-04-03T11:24:05;0.70;;;0.60;;
34196;SDS011;36594;45.192;5.722;2023-04-03T11:26:58;0.50;;;0.50;;
34196;SDS011;36594;45.192;5.722;2023-04-03T11:29:50;0.55;;;0.55;;
34196;SDS011;36594;45.192;5.722;2023-04-03T11:32:46;0.50;;;0.50;;
34196;SDS011;36594;45.192;5.722;2023-04-03T11:35:42;0.90;;;0.50;;
34196;SDS011;36594;45.192;5.722;2023-04-03T11:38:36;0.55;;;0.55;;
34196;SDS011;36594;45.192;5.722;2023-04-03T11:41:43;0.50;;;0.50;;
34196;SDS011;36594;45.192;5.722;2023-04-03T11:44:37;0.50;;;0.50;;
34196;SDS011;36594;45.192;5.722;2023-04-03T11:47:48;0.55;;;0.55;;
34196;SDS011;36594;45.192;5.722;2023-04-03T11:53:37;0.60;;;0.60;;
34196;SDS011;36594;45.192;5.722;2023-04-03T11:56:27;0.57;;;0.57;;
34196;SDS011;36594;45.192;5.722;2023-04-03T11:59:21;1.00;;;0.40;;
34196;SDS011;36594;45.192;5.722;2023-04-03T12:02:34;0.60;;;0.60;;
34196;SDS011;36594;45.192;5.722;2023-04-03T12:05:27;0.40;;;0.40;;
34196;SDS011;36594;45.192;5.722;2023-04-03T12:11:30;0.70;;;0.70;;
34196;SDS011;36594;45.192;5.722;2023-04-03T12:14:21;0.50;;;0.50;;
34196;SDS011;36594;45.192;5.722;2023-04-03T12:17:22;0.50;;;0.50;;
34196;SDS011;36594;45.192;5.722;2023-04-03T12:23:36;0.50;;;0.50;;
34196;SDS011;36594;45.192;5.722;2023-04-03T12:26:24;0.40;;;0.40;;
34196;SDS011;36594;45.192;5.722;2023-04-03T12:29:24;0.47;;;0.47;;
34196;SDS011;36594;45.192;5.722;2023-04-03T12:32:34;1.00;;;0.42;;
34196;SDS011;36594;45.192;5.722;2023-04-03T12:35:30;0.50;;;0.50;;
34196;SDS011;36594;45.192;5.722;2023-04-03T12:41:46;0.50;;;0.50;;
34196;SDS011;36594;45.192;5.722;2023-04-03T12:44:40;0.42;;;0.42;;
34196;SDS011;36594;45.192;5.722;2023-04-03T12:47:31;0.40;;;0.40;;
34196;SDS011;36594;45.192;5.722;2023-04-03T12:50:31;0.47;;;0.47;;
34196;SDS011;36594;45.192;5.722;2023-04-03T12:53:21;0.45;;;0.45;;
34196;SDS011;36594;45.192;5.722;2023-04-03T12:56:24;0.40;;;0.40;;
34196;SDS011;36594;45.192;5.722;2023-04-03T12:59:24;0.68;;;0.68;;
34196;SDS011;36594;45.192;5.722;2023-04-03T13:02:24;0.40;;;0.40;;
34196;SDS011;36594;45.192;5.722;2023-04-03T13:05:18;0.80;;;0.45;;
34196;SDS011;36594;45.192;5.722;2023-04-03T13:08:10;0.50;;;0.50;;
34196;SDS011;36594;45.192;5.722;2023-04-03T13:11:02;0.45;;;0.45;;
34196;SDS011;36594;45.192;5.722;2023-04-03T13:13:59;0.65;;;0.40;;
34196;SDS011;36594;45.192;5.722;2023-04-03T13:16:55;0.90;;;0.50;;
34196;SDS011;36594;45.192;5.722;2023-04-03T13:19:45;0.60;;;0.60;;
34196;SDS011;36594;45.192;5.722;2023-04-03T13:22:34;0.50;;;0.50;;
34196;SDS011;36594;45.192;5.722;2023-04-03T13:25:27;0.45;;;0.45;;
34196;SDS011;36594;45.192;5.722;2023-04-03T13:28:22;0.40;;;0.40;;
34196;SDS011;36594;45.192;5.722;2023-04-03T13:37:01;2.20;;;0.55;;
34196;SDS011;36594;45.192;5.722;2023-04-03T13:40:03;0.57;;;0.57;;
34196;SDS011;36594;45.192;5.722;2023-04-03T13:42:58;0.50;;;0.50;;
34196;SDS011;36594;45.192;5.722;2023-04-03T13:49:16;0.40;;;0.40;;
34196;SDS011;36594;45.192;5.722;2023-04-03T13:51:53;0.40;;;0.40;;
34196;SDS011;36594;45.192;5.722;2023-04-03T13:54:42;0.70;;;0.70;;
34196;SDS011;36594;45.192;5.722;2023-04-03T13:57:33;0.30;;;0.30;;
34196;SDS011;36594;45.192;5.722;2023-04-03T14:00:27;4.00;;;0.70;;
34196;SDS011;36594;45.192;5.722;2023-04-03T14:03:34;0.50;;;0.50;;
34196;SDS011;36594;45.192;5.722;2023-04-03T14:06:29;0.40;;;0.40;;
34196;SDS011;36594;45.192;5.722;2023-04-03T14:09:19;0.45;;;0.45;;
34196;SDS011;36594;45.192;5.722;2023-04-03T14:12:13;0.35;;;0.35;;
34196;SDS011;36594;45.192;5.722;2023-04-03T14:15:04;0.40;;;0.40;;
34196;SDS011;36594;45.192;5.722;2023-04-03T14:17:54;0.37;;;0.37;;
34196;SDS011;36594;45.192;5.722;2023-04-03T14:20:47;0.50;;;0.42;;
34196;SDS011;36594;45.192;5.722;2023-04-03T14:23:34;0.47;;;0.47;;
34196;SDS011;36594;45.192;5.722;2023-04-03T14:26:23;0.53;;;0.53;;
34196;SDS011;36594;45.192;5.722;2023-04-03T14:29:14;0.97;;;0.50;;
34196;SDS011;36594;45.192;5.722;2023-04-03T14:32:02;0.30;;;0.30;;
34196;SDS011;36594;45.192;5.722;2023-04-03T14:34:51;0.47;;;0.47;;
34196;SDS011;36594;45.192;5.722;2023-04-03T14:37:40;0.40;;;0.40;;
34196;SDS011;36594;45.192;5.722;2023-04-03T14:40:29;0.60;;;0.60;;
34196;SDS011;36594;45.192;5.722;2023-04-03T14:43:17;0.37;;;0.37;;
34196;SDS011;36594;45.192;5.722;2023-04-03T14:46:19;0.47;;;0.47;;
34196;SDS011;36594;45.192;5.722;2023-04-03T14:49:04;0.40;;;0.40;;
34196;SDS011;36594;45.192;5.722;2023-04-03T14:51:56;0.98;;;0.40;;
34196;SDS011;36594;45.192;5.722;2023-04-03T14:54:45;0.50;;;0.50;;
34196;SDS011;36594;45.192;5.722;2023-04-03T14:57:34;0.50;;;0.30;;
34196;SDS011;36594;45.192;5.722;2023-04-03T15:00:24;0.50;;;0.50;;
34196;SDS011;36594;45.192;5.722;2023-04-03T15:03:13;0.50;;;0.50;;
34196;SDS011;36594;45.192;5.722;2023-04-03T15:06:04;0.40;;;0.40;;
34196;SDS011;36594;45.192;5.722;2023-04-03T15:08:52;1.27;;;0.57;;
34196;SDS011;36594;45.192;5.722;2023-04-03T15:11:41;0.40;;;0.40;;
34196;SDS011;36594;45.192;5.722;2023-04-03T15:14:29;0.20;;;0.20;;
34196;SDS011;36594;45.192;5.722;2023-04-03T15:17:19;0.50;;;0.50;;
34196;SDS011;36594;45.192;5.722;2023-04-03T15:20:15;0.50;;;0.50;;
34196;SDS011;36594;45.192;5.722;2023-04-03T15:23:01;0.42;;;0.42;;
34196;SDS011;36594;45.192;5.722;2023-04-03T15:25:51;0.40;;;0.40;;
34196;SDS011;36594;45.192;5.722;2023-04-03T15:28:42;0.53;;;0.53;;
34196;SDS011;36594;45.192;5.722;2023-04-03T15:31:31;0.98;;;0.45;;
34196;SDS011;36594;45.192;5.722;2023-04-03T15:34:21;0.40;;;0.40;;
34196;SDS011;36594;45.192;5.722;2023-04-03T15:37:09;0.50;;;0.50;;
34196;SDS011;36594;45.192;5.722;2023-04-03T15:39:57;0.40;;;0.40;;
34196;SDS011;36594;45.192;5.722;2023-04-03T15:42:46;0.37;;;0.37;;
34196;SDS011;36594;45.192;5.722;2023-04-03T15:45:35;0.40;;;0.40;;
34196;SDS011;36594;45.192;5.722;2023-04-03T15:48:25;0.40;;;0.40;;
34196;SDS011;36594;45.192;5.722;2023-04-03T15:51:15;0.47;;;0.47;;
34196;SDS011;36594;45.192;5.722;2023-04-03T15:54:04;0.30;;;0.30;;
34196;SDS011;36594;45.192;5.722;2023-04-03T15:56:52;0.37;;;0.37;;
34196;SDS011;36594;45.192;5.722;2023-04-03T15:59:41;0.57;;;0.57;;
34196;SDS011;36594;45.192;5.722;2023-04-03T16:02:29;0.35;;;0.35;;
34196;SDS011;36594;45.192;5.722;2023-04-03T16:05:18;0.40;;;0.40;;
34196;SDS011;36594;45.192;5.722;2023-04-03T16:08:07;0.40;;;0.40;;
34196;SDS011;36594;45.192;5.722;2023-04-03T16:10:55;0.40;;;0.40;;
34196;SDS011;36594;45.192;5.722;2023-04-03T16:13:43;0.50;;;0.50;;
34196;SDS011;36594;45.192;5.722;2023-04-03T16:16:32;0.42;;;0.42;;
34196;SDS011;36594;45.192;5.722;2023-04-03T16:19:20;0.33;;;0.33;;
34196;SDS011;36594;45.192;5.722;2023-04-03T16:22:09;0.50;;;0.50;;
34196;SDS011;36594;45.192;5.722;2023-04-03T16:24:57;0.45;;;0.45;;
34196;SDS011;36594;45.192;5.722;2023-04-03T16:27:46;0.60;;;0.50;;
34196;SDS011;36594;45.192;5.722;2023-04-03T16:30:34;0.50;;;0.50;;
34196;SDS011;36594;45.192;5.722;2023-04-03T16:33:23;0.30;;;0.30;;
34196;SDS011;36594;45.192;5.722;2023-04-03T16:36:12;0.60;;;0.50;;
34196;SDS011;36594;45.192;5.722;2023-04-03T16:39:00;0.80;;;0.50;;
34196;SDS011;36594;45.192;5.722;2023-04-03T16:41:49;0.50;;;0.50;;
34196;SDS011;36594;45.192;5.722;2023-04-03T16:44:37;0.50;;;0.50;;
34196;SDS011;36594;45.192;5.722;2023-04-03T16:47:26;0.50;;;0.50;;
34196;SDS011;36594;45.192;5.722;2023-04-03T16:50:15;0.37;;;0.37;;
34196;SDS011;36594;45.192;5.722;2023-04-03T16:53:03;1.80;;;0.50;;
34196;SDS011;36594;45.192;5.722;2023-04-03T16:55:53;0.30;;;0.30;;
34196;SDS011;36594;45.192;5.722;2023-04-03T16:58:43;0.40;;;0.40;;
34196;SDS011;36594;45.192;5.722;2023-04-03T17:01:31;0.40;;;0.40;;
34196;SDS011;36594;45.192;5.722;2023-04-03T17:04:20;0.50;;;0.50;;
34196;SDS011;36594;45.192;5.722;2023-04-03T17:07:08;0.80;;;0.50;;
34196;SDS011;36594;45.192;5.722;2023-04-03T17:09:56;0.40;;;0.40;;
34196;SDS011;36594;45.192;5.722;2023-04-03T17:12:45;0.47;;;0.47;;
34196;SDS011;36594;45.192;5.722;2023-04-03T17:15:33;0.40;;;0.40;;
34196;SDS011;36594;45.192;5.722;2023-04-03T17:18:22;0.50;;;0.50;;
34196;SDS011;36594;45.192;5.722;2023-04-03T17:21:11;0.37;;;0.37;;
34196;SDS011;36594;45.192;5.722;2023-04-03T17:24:00;0.50;;;0.50;;
34196;SDS011;36594;45.192;5.722;2023-04-03T17:26:52;0.42;;;0.40;;
34196;SDS011;36594;45.192;5.722;2023-04-03T17:29:41;0.40;;;0.40;;
34196;SDS011;36594;45.192;5.722;2023-04-03T17:32:29;0.30;;;0.30;;
34196;SDS011;36594;45.192;5.722;2023-04-03T17:35:17;0.50;;;0.50;;
34196;SDS011;36594;45.192;5.722;2023-04-03T17:38:06;0.42;;;0.42;;
34196;SDS011;36594;45.192;5.722;2023-04-03T17:40:55;0.30;;;0.30;;
34196;SDS011;36594;45.192;5.722;2023-04-03T17:43:45;0.30;;;0.30;;
34196;SDS011;36594;45.192;5.722;2023-04-03T17:46:33;0.30;;;0.30;;
34196;SDS011;36594;45.192;5.722;2023-04-03T17:49:21;0.40;;;0.40;;
34196;SDS011;36594;45.192;5.722;2023-04-03T17:52:10;0.30;;;0.30;;
34196;SDS011;36594;45.192;5.722;2023-04-03T17:54:59;0.50;;;0.50;;
34196;SDS011;36594;45.192;5.722;2023-04-03T17:57:47;0.40;;;0.40;;
34196;SDS011;36594;45.192;5.722;2023-04-03T18:00:35;0.40;;;0.40;;